createdAt,value
2022-12-16T00:00:09.063Z,15.30
2022-12-16T00:02:36.313Z,15.90
2022-12-16T00:05:04.117Z,14.93
2022-12-16T00:07:31.013Z,14.80
2022-12-16T00:09:57.869Z,17.50
2022-12-16T00:12:24.788Z,15.77
2022-12-16T00:14:51.996Z,16.33
2022-12-16T00:17:19.009Z,14.35
2022-12-16T00:19:45.788Z,17.67
2022-12-16T00:22:12.621Z,15.35
2022-12-16T00:24:39.463Z,16.80
2022-12-16T00:27:06.431Z,15.80
2022-12-16T00:29:33.351Z,15.70
2022-12-16T00:32:00.404Z,17.70
2022-12-16T00:34:27.342Z,16.60
2022-12-16T00:36:54.197Z,15.60
2022-12-16T00:39:22.170Z,15.75
2022-12-16T00:41:49.058Z,14.95
2022-12-16T00:44:15.985Z,14.30
2022-12-16T00:46:42.858Z,15.00
2022-12-16T00:49:09.771Z,15.23
2022-12-16T00:51:36.606Z,14.02
2022-12-16T00:54:03.548Z,15.32
2022-12-16T00:56:30.462Z,12.13
2022-12-16T00:58:57.346Z,14.45
2022-12-16T01:01:24.320Z,14.13
2022-12-16T01:03:51.229Z,14.20
2022-12-16T01:06:18.564Z,14.48
2022-12-16T01:08:48.627Z,13.73
2022-12-16T01:11:17.478Z,13.27
2022-12-16T01:13:45.161Z,13.95
2022-12-16T01:16:12.045Z,14.65
2022-12-16T01:18:38.901Z,14.88
2022-12-16T01:21:07.618Z,14.85
2022-12-16T01:23:35.659Z,14.90
2022-12-16T01:26:02.858Z,13.85
2022-12-16T01:28:30.650Z,12.55
2022-12-16T01:31:01.720Z,13.40
2022-12-16T01:33:30.986Z,14.95
2022-12-16T01:36:08.230Z,12.20
2022-12-16T01:38:35.412Z,12.25
2022-12-16T01:41:02.461Z,12.20
2022-12-16T01:43:32.627Z,13.27
2022-12-16T01:46:07.506Z,13.10
2022-12-16T01:48:35.303Z,12.63
2022-12-16T01:51:14.603Z,13.07
2022-12-16T01:53:43.821Z,12.55
2022-12-16T01:56:13.239Z,13.68
2022-12-16T01:58:41.201Z,14.25
2022-12-16T02:01:09.169Z,12.00
2022-12-16T02:03:37.027Z,13.18
2022-12-16T02:06:06.235Z,11.65
2022-12-16T02:08:33.097Z,12.30
2022-12-16T02:11:28.816Z,14.15
2022-12-16T02:14:24.391Z,12.00
2022-12-16T02:17:07.658Z,15.13
2022-12-16T02:19:41.365Z,11.77
2022-12-16T02:22:35.716Z,11.90
2022-12-16T02:25:14.806Z,12.38
2022-12-16T02:28:11.469Z,15.13
2022-12-16T02:30:56.770Z,12.02
2022-12-16T02:33:55.515Z,11.18
2022-12-16T02:36:40.843Z,12.10
2022-12-16T02:39:26.490Z,13.80
2022-12-16T02:42:07.536Z,13.07
2022-12-16T02:44:54.604Z,12.93
2022-12-16T02:47:21.506Z,12.00
2022-12-16T02:49:50.917Z,12.90
2022-12-16T02:52:26.620Z,12.00
2022-12-16T02:54:58.393Z,12.38
2022-12-16T02:57:54.105Z,12.90
2022-12-16T03:00:22.722Z,10.90
2022-12-16T03:02:56.072Z,12.77
2022-12-16T03:05:35.820Z,13.35
2022-12-16T03:08:06.163Z,12.20
2022-12-16T03:10:41.526Z,12.80
2022-12-16T03:13:09.340Z,12.73
2022-12-16T03:15:36.921Z,13.00
2022-12-16T03:18:06.285Z,12.00
2022-12-16T03:21:03.892Z,12.43
2022-12-16T03:24:00.847Z,11.35
2022-12-16T03:26:35.669Z,11.68
2022-12-16T03:29:06.218Z,13.00
2022-12-16T03:31:36.141Z,11.90
2022-12-16T03:34:14.712Z,11.77
2022-12-16T03:36:42.526Z,12.13
2022-12-16T03:39:09.493Z,12.77
2022-12-16T03:41:37.158Z,13.85
2022-12-16T03:44:04.369Z,12.88
2022-12-16T03:46:31.249Z,13.52
2022-12-16T03:48:58.101Z,11.68
2022-12-16T03:51:24.957Z,11.43
2022-12-16T03:53:51.770Z,12.02
2022-12-16T03:56:18.679Z,13.00
2022-12-16T03:58:47.041Z,11.85
2022-12-16T04:01:14.020Z,11.80
2022-12-16T04:03:41.126Z,11.25
2022-12-16T04:06:08.210Z,11.35
2022-12-16T04:08:35.456Z,11.77
2022-12-16T04:11:20.872Z,12.05
2022-12-16T04:14:06.201Z,9.95
2022-12-16T04:16:51.684Z,11.20
2022-12-16T04:19:45.789Z,12.77
2022-12-16T04:22:46.165Z,11.00
2022-12-16T04:25:34.863Z,8.90
2022-12-16T04:28:02.097Z,8.25
2022-12-16T04:30:34.606Z,11.95
2022-12-16T04:36:06.487Z,12.20
2022-12-16T04:38:51.788Z,11.77
2022-12-16T04:41:38.115Z,11.10
2022-12-16T04:44:24.326Z,10.40
2022-12-16T04:47:09.792Z,11.50
2022-12-16T04:49:55.417Z,11.43
2022-12-16T04:52:41.146Z,10.25
2022-12-16T04:55:27.432Z,11.98
2022-12-16T04:58:14.506Z,11.18
2022-12-16T05:01:00.561Z,11.43
2022-12-16T05:03:47.010Z,9.93
2022-12-16T05:06:32.789Z,11.00
2022-12-16T05:09:18.355Z,11.05
2022-12-16T05:12:04.344Z,10.75
2022-12-16T05:14:49.832Z,9.82
2022-12-16T05:17:35.588Z,11.27
2022-12-16T05:20:21.343Z,10.32
2022-12-16T05:23:06.631Z,11.38
2022-12-16T05:25:51.971Z,10.10
2022-12-16T05:28:37.701Z,9.73
2022-12-16T05:31:23.353Z,9.77
2022-12-16T05:34:08.713Z,10.32
2022-12-16T05:36:54.477Z,10.10
2022-12-16T05:39:47.530Z,8.93
2022-12-16T05:42:33.171Z,10.30
2022-12-16T05:45:18.725Z,10.73
2022-12-16T05:48:11.509Z,8.13
2022-12-16T05:50:57.168Z,9.43
2022-12-16T05:53:42.599Z,9.68
2022-12-16T05:56:27.926Z,10.23
2022-12-16T05:59:13.304Z,10.90
2022-12-16T06:01:58.496Z,8.52
2022-12-16T06:04:44.021Z,9.88
2022-12-16T06:07:29.238Z,9.93
2022-12-16T06:10:14.761Z,10.77
2022-12-16T06:13:00.181Z,9.45
2022-12-16T06:15:45.446Z,10.98
2022-12-16T06:18:30.902Z,9.30
2022-12-16T06:21:16.213Z,8.75
2022-12-16T06:24:01.427Z,9.35
2022-12-16T06:26:46.917Z,10.60
2022-12-16T06:29:32.643Z,10.20
2022-12-16T06:32:18.184Z,10.10
2022-12-16T06:35:03.534Z,9.52
2022-12-16T06:37:48.878Z,10.48
2022-12-16T06:40:34.650Z,9.75
2022-12-16T06:43:20.249Z,8.43
2022-12-16T06:46:19.623Z,10.23
2022-12-16T06:49:05.196Z,9.50
2022-12-16T06:51:50.712Z,9.95
2022-12-16T06:54:35.968Z,10.30
2022-12-16T06:57:21.333Z,10.35
2022-12-16T07:00:06.563Z,9.57
2022-12-16T07:02:52.513Z,10.32
2022-12-16T07:05:38.545Z,9.25
2022-12-16T07:08:23.907Z,7.70
2022-12-16T07:11:16.527Z,9.02
2022-12-16T07:14:03.156Z,10.57
2022-12-16T07:16:48.720Z,9.40
2022-12-16T07:19:34.796Z,9.45
2022-12-16T07:22:20.230Z,9.43
2022-12-16T07:25:05.856Z,10.52
2022-12-16T07:27:51.322Z,7.38
2022-12-16T07:30:36.924Z,8.55
2022-12-16T07:33:22.536Z,6.82
2022-12-16T07:36:07.838Z,10.63
2022-12-16T07:38:53.203Z,11.80
2022-12-16T07:41:38.757Z,9.32
2022-12-16T07:44:24.192Z,10.63
2022-12-16T07:47:09.804Z,10.68
2022-12-16T07:49:55.649Z,10.00
2022-12-16T07:52:41.999Z,10.55
2022-12-16T07:55:27.718Z,11.80
2022-12-16T07:58:13.387Z,10.63
2022-12-16T08:00:58.937Z,11.77
2022-12-16T08:03:44.793Z,10.10
2022-12-16T08:06:30.897Z,11.35
2022-12-16T08:09:16.514Z,10.00
2022-12-16T08:12:01.854Z,11.02
2022-12-16T08:14:47.244Z,12.27
2022-12-16T08:17:32.551Z,10.40
2022-12-16T08:20:17.975Z,8.77
2022-12-16T08:23:03.629Z,12.45
2022-12-16T08:25:49.199Z,10.80
2022-12-16T08:28:34.882Z,11.30
2022-12-16T08:31:20.245Z,14.43
2022-12-16T08:34:05.636Z,14.20
2022-12-16T08:36:51.199Z,12.00
2022-12-16T08:39:36.783Z,10.32
2022-12-16T08:42:22.442Z,9.77
2022-12-16T08:45:07.913Z,10.77
2022-12-16T08:47:54.457Z,10.15
2022-12-16T08:50:41.559Z,12.40
2022-12-16T08:53:27.833Z,11.23
2022-12-16T08:56:13.157Z,9.23
2022-12-16T08:59:09.378Z,11.25
2022-12-16T09:01:54.883Z,10.93
2022-12-16T09:04:40.924Z,12.15
2022-12-16T09:07:26.163Z,13.93
2022-12-16T09:10:11.665Z,11.27
2022-12-16T09:12:57.023Z,11.00
2022-12-16T09:15:42.218Z,13.60
2022-12-16T09:18:27.880Z,11.85
2022-12-16T09:21:13.284Z,11.95
2022-12-16T09:23:58.869Z,12.27
2022-12-16T09:26:45.755Z,10.55
2022-12-16T09:29:31.070Z,11.52
2022-12-16T09:32:16.593Z,10.20
2022-12-16T09:35:02.317Z,21.83
2022-12-16T09:37:47.684Z,11.50
2022-12-16T09:40:35.233Z,11.75
2022-12-16T09:43:58.987Z,12.77
2022-12-16T09:47:22.295Z,16.60
2022-12-16T09:50:09.825Z,15.40
2022-12-16T09:53:08.366Z,13.02
2022-12-16T09:55:59.673Z,12.57
2022-12-16T09:58:48.564Z,10.48
2022-12-16T10:01:34.418Z,11.30
2022-12-16T10:04:20.230Z,11.88
2022-12-16T10:07:07.980Z,10.90
2022-12-16T10:10:24.983Z,10.55
2022-12-16T10:13:41.267Z,9.88
2022-12-16T10:16:32.556Z,10.13
2022-12-16T10:19:36.810Z,10.48
2022-12-16T10:22:25.054Z,12.50
2022-12-16T10:25:10.343Z,11.85
2022-12-16T10:28:06.998Z,14.30
2022-12-16T10:30:55.679Z,12.00
2022-12-16T10:33:43.889Z,10.57
2022-12-16T10:36:37.075Z,11.20
2022-12-16T10:39:40.811Z,9.48
2022-12-16T10:42:50.524Z,9.15
2022-12-16T10:45:47.636Z,9.25
2022-12-16T10:48:33.574Z,9.02
2022-12-16T10:51:19.209Z,9.30
2022-12-16T10:54:05.743Z,9.82
2022-12-16T10:57:14.491Z,10.52
2022-12-16T11:00:20.393Z,9.88
2022-12-16T11:03:06.154Z,10.20
2022-12-16T11:05:53.761Z,14.68
2022-12-16T11:08:51.479Z,11.00
2022-12-16T11:11:48.201Z,13.25
2022-12-16T11:14:59.179Z,11.95
2022-12-16T11:17:48.944Z,10.77
2022-12-16T11:20:43.213Z,14.18
2022-12-16T11:23:45.001Z,10.38
2022-12-16T11:26:38.018Z,9.75
2022-12-16T11:29:25.203Z,10.30
2022-12-16T11:32:19.522Z,11.00
2022-12-16T11:35:10.002Z,9.32
2022-12-16T11:37:57.376Z,9.50
2022-12-16T11:40:43.471Z,10.93
2022-12-16T11:43:32.584Z,11.18
2022-12-16T11:46:20.554Z,10.98
2022-12-16T11:49:25.001Z,9.90
2022-12-16T11:52:35.908Z,12.52
2022-12-16T11:56:03.550Z,14.95
2022-12-16T11:59:07.088Z,13.50
2022-12-16T12:02:01.730Z,12.48
2022-12-16T12:04:47.346Z,12.45
2022-12-16T12:07:45.430Z,10.95
2022-12-16T12:11:04.379Z,8.90
2022-12-16T12:14:33.858Z,7.78
2022-12-16T12:17:27.448Z,8.45
2022-12-16T12:20:33.367Z,9.30
2022-12-16T12:23:25.271Z,7.80
2022-12-16T12:26:31.809Z,9.80
2022-12-16T12:29:36.004Z,9.68
2022-12-16T12:32:59.051Z,9.80
2022-12-16T12:36:03.928Z,8.57
2022-12-16T12:38:49.265Z,7.78
2022-12-16T12:41:46.732Z,8.90
2022-12-16T12:44:59.563Z,7.88
2022-12-16T12:47:46.414Z,7.37
2022-12-16T12:50:38.417Z,7.07
2022-12-16T12:53:45.973Z,7.45
2022-12-16T12:57:05.379Z,7.88
2022-12-16T13:00:18.187Z,7.28
2022-12-16T13:03:25.521Z,8.10
2022-12-16T13:06:11.801Z,11.60
2022-12-16T13:09:00.493Z,18.90
2022-12-16T13:11:46.257Z,13.73
2022-12-16T13:15:10.123Z,12.43
2022-12-16T13:18:18.266Z,9.80
2022-12-16T13:21:05.131Z,12.43
2022-12-16T13:23:50.844Z,9.80
2022-12-16T13:26:39.195Z,9.27
2022-12-16T13:29:38.522Z,9.68
2022-12-16T13:32:23.847Z,10.05
2022-12-16T13:35:24.184Z,10.88
2022-12-16T13:38:14.901Z,11.48
2022-12-16T13:41:21.286Z,11.02
2022-12-16T13:44:10.198Z,19.50
2022-12-16T13:47:02.095Z,23.60
2022-12-16T13:50:09.720Z,45.17
2022-12-16T13:53:15.279Z,37.25
2022-12-16T13:56:18.180Z,29.02
2022-12-16T13:59:12.593Z,26.67
2022-12-16T14:02:13.362Z,28.15
2022-12-16T14:05:05.668Z,28.42
2022-12-16T14:07:53.312Z,15.48
2022-12-16T14:10:50.232Z,21.80
2022-12-16T14:14:02.044Z,20.83
2022-12-16T14:16:52.336Z,18.75
2022-12-16T14:20:00.436Z,16.40
2022-12-16T14:23:04.910Z,16.00
2022-12-16T14:25:50.247Z,20.27
2022-12-16T14:28:49.446Z,26.25
2022-12-16T14:31:52.247Z,25.45
2022-12-16T14:34:50.427Z,20.50
2022-12-16T14:37:38.943Z,15.32
2022-12-16T14:40:57.156Z,14.95
2022-12-16T14:43:44.375Z,19.17
2022-12-16T14:46:50.337Z,28.52
2022-12-16T14:49:43.377Z,36.75
2022-12-16T14:52:43.416Z,45.70
2022-12-16T14:55:48.150Z,44.63
2022-12-16T14:58:37.790Z,36.03
2022-12-16T15:01:33.412Z,33.67
2022-12-16T15:04:20.332Z,21.30
2022-12-16T15:07:08.220Z,15.63
2022-12-16T15:10:00.524Z,11.48
2022-12-16T15:12:51.495Z,16.00
2022-12-16T15:15:53.164Z,15.70
2022-12-16T15:19:01.957Z,20.25
2022-12-16T15:21:47.973Z,25.25
2022-12-16T15:24:38.315Z,25.88
2022-12-16T15:27:43.859Z,23.75
2022-12-16T15:31:02.192Z,20.35
2022-12-16T15:33:56.171Z,15.70
2022-12-16T15:36:47.616Z,13.10
2022-12-16T15:39:55.404Z,13.27
2022-12-16T15:42:45.302Z,14.95
2022-12-16T15:45:50.978Z,18.90
2022-12-16T15:48:45.112Z,20.40
2022-12-16T15:51:45.236Z,18.85
2022-12-16T15:54:48.614Z,18.58
2022-12-16T15:57:52.545Z,15.48
2022-12-16T16:00:42.557Z,18.98
2022-12-16T16:03:48.804Z,18.48
2022-12-16T16:06:42.340Z,18.77
2022-12-16T16:09:50.867Z,15.75
2022-12-16T16:12:38.305Z,15.07
2022-12-16T16:15:25.522Z,15.18
2022-12-16T16:18:29.176Z,15.68
2022-12-16T16:21:14.724Z,14.82
2022-12-16T16:24:00.278Z,15.40
2022-12-16T16:26:46.859Z,14.38
2022-12-16T16:29:32.439Z,16.42
2022-12-16T16:32:17.877Z,14.13
2022-12-16T16:35:03.273Z,14.27
2022-12-16T16:37:48.812Z,15.63
2022-12-16T16:40:49.873Z,17.17
2022-12-16T16:43:36.244Z,15.95
2022-12-16T16:46:32.466Z,16.20
2022-12-16T16:49:18.627Z,23.65
2022-12-16T16:52:06.003Z,24.98
2022-12-16T16:54:51.600Z,24.02
2022-12-16T16:57:37.246Z,27.20
2022-12-16T17:00:23.506Z,25.17
2022-12-16T17:03:09.053Z,14.95
2022-12-16T17:05:54.878Z,13.95
2022-12-16T17:08:40.238Z,14.35
2022-12-16T17:11:35.856Z,14.52
2022-12-16T17:14:21.382Z,13.80
2022-12-16T17:17:07.079Z,12.57
2022-12-16T17:19:52.690Z,13.18
2022-12-16T17:22:38.267Z,14.45
2022-12-16T17:25:24.039Z,17.75
2022-12-16T17:28:09.426Z,17.42
2022-12-16T17:30:54.864Z,13.65
2022-12-16T17:33:40.610Z,13.00
2022-12-16T17:36:32.085Z,12.32
2022-12-16T17:39:17.807Z,9.65
2022-12-16T17:42:04.317Z,8.95
2022-12-16T17:44:49.984Z,9.15
2022-12-16T17:47:35.854Z,10.27
2022-12-16T17:50:22.202Z,12.20
2022-12-16T17:53:08.816Z,13.48
2022-12-16T17:55:54.433Z,19.35
2022-12-16T17:58:40.079Z,15.68
2022-12-16T18:01:26.007Z,11.32
2022-12-16T18:04:11.820Z,12.70
2022-12-16T18:06:57.307Z,16.40
2022-12-16T18:09:42.979Z,17.98
2022-12-16T18:12:28.283Z,15.80
2022-12-16T18:15:13.743Z,15.80
2022-12-16T18:17:59.871Z,16.52
2022-12-16T18:20:45.371Z,16.17
2022-12-16T18:23:31.226Z,19.13
2022-12-16T18:26:22.431Z,21.25
2022-12-16T18:29:07.738Z,23.35
2022-12-16T18:31:53.216Z,21.98
2022-12-16T18:34:38.710Z,19.55
2022-12-16T18:37:24.524Z,15.40
2022-12-16T18:40:10.234Z,15.25
2022-12-16T18:42:55.831Z,16.95
2022-12-16T18:45:41.102Z,16.80
2022-12-16T18:48:26.573Z,17.25
2022-12-16T18:51:16.968Z,15.88
2022-12-16T18:54:02.610Z,15.77
2022-12-16T18:56:48.207Z,15.85
2022-12-16T18:59:33.592Z,15.52
2022-12-16T19:02:19.262Z,15.32
2022-12-16T19:05:05.246Z,14.13
2022-12-16T19:07:50.486Z,15.85
2022-12-16T19:10:37.717Z,15.05
2022-12-16T19:13:22.999Z,18.00
2022-12-16T19:16:13.224Z,19.50
2022-12-16T19:18:58.662Z,18.83
2022-12-16T19:24:49.238Z,18.00
2022-12-16T19:27:34.480Z,19.45
2022-12-16T19:30:19.687Z,22.63
2022-12-16T19:33:08.846Z,19.50
2022-12-16T19:35:54.655Z,20.17
2022-12-16T19:38:42.454Z,18.20
2022-12-16T19:41:35.737Z,18.33
2022-12-16T19:44:22.523Z,17.98
2022-12-16T19:47:09.392Z,16.42
2022-12-16T19:49:56.141Z,18.75
2022-12-16T19:52:42.253Z,15.57
2022-12-16T19:55:27.969Z,20.90
2022-12-16T19:58:13.364Z,19.00
2022-12-16T20:00:58.809Z,25.27
2022-12-16T20:03:45.122Z,26.25
2022-12-16T20:06:30.994Z,23.23
2022-12-16T20:09:16.289Z,17.08
2022-12-16T20:12:02.252Z,14.07
2022-12-16T20:14:48.501Z,18.50
2022-12-16T20:17:33.916Z,16.02
2022-12-16T20:20:19.650Z,32.08
2022-12-16T20:23:05.130Z,15.80
2022-12-16T20:25:50.760Z,12.30
2022-12-16T20:28:37.080Z,13.55
2022-12-16T20:31:23.093Z,15.45
2022-12-16T20:34:12.791Z,15.02
2022-12-16T20:36:58.718Z,16.02
2022-12-16T20:39:49.505Z,15.10
2022-12-16T20:42:38.735Z,18.63
2022-12-16T20:45:24.381Z,17.63
2022-12-16T20:48:11.690Z,15.10
2022-12-16T20:50:57.105Z,16.98
2022-12-16T20:53:43.041Z,16.10
2022-12-16T20:56:28.369Z,16.75
2022-12-16T20:59:13.657Z,16.42
2022-12-16T21:02:22.200Z,22.30
2022-12-16T21:05:04.747Z,23.10
2022-12-16T21:07:50.321Z,19.73
2022-12-16T21:10:36.141Z,18.27
2022-12-16T21:13:27.931Z,23.30
2022-12-16T21:14:28.200Z,19.27
2022-12-16T21:16:15.598Z,23.48
2022-12-16T21:19:01.562Z,22.65
2022-12-16T21:21:47.325Z,21.70
2022-12-16T21:24:32.586Z,21.33
2022-12-16T21:27:18.149Z,16.88
2022-12-16T21:30:03.895Z,17.23
2022-12-16T21:32:49.554Z,18.27
2022-12-16T21:35:36.559Z,16.65
2022-12-16T21:38:26.584Z,15.73
2022-12-16T21:41:12.992Z,16.33
2022-12-16T21:43:58.939Z,14.63
2022-12-16T21:46:45.037Z,15.75
2022-12-16T21:49:30.339Z,17.35
2022-12-16T21:52:29.450Z,17.52
2022-12-16T21:55:14.744Z,16.85
2022-12-16T21:58:02.143Z,16.63
2022-12-16T22:00:47.900Z,16.95
2022-12-16T22:03:33.420Z,16.70
2022-12-16T22:06:19.177Z,15.73
2022-12-16T22:09:04.968Z,16.55
2022-12-16T22:11:50.311Z,16.30
2022-12-16T22:14:36.813Z,15.10
2022-12-16T22:17:22.527Z,17.08
2022-12-16T22:20:08.538Z,15.30
2022-12-16T22:22:55.101Z,14.60
2022-12-16T22:25:41.677Z,12.80
2022-12-16T22:28:27.075Z,14.18
2022-12-16T22:31:15.820Z,11.02
2022-12-16T22:34:01.996Z,12.50
2022-12-16T22:36:47.818Z,12.02
2022-12-16T22:39:33.375Z,13.85
2022-12-16T22:42:18.909Z,11.80
2022-12-16T22:45:04.772Z,14.75
2022-12-16T22:47:50.790Z,14.85
2022-12-16T22:50:37.329Z,15.05
2022-12-16T22:53:22.895Z,14.75
2022-12-16T22:56:12.641Z,14.15
2022-12-16T22:58:58.321Z,14.30
2022-12-16T23:01:48.602Z,14.93
2022-12-16T23:04:33.858Z,13.85
2022-12-16T23:07:19.535Z,15.07
2022-12-16T23:10:05.092Z,14.52
2022-12-16T23:12:50.703Z,14.48
2022-12-16T23:15:37.754Z,15.73
2022-12-16T23:18:22.990Z,13.15
2022-12-16T23:21:09.664Z,14.38
2022-12-16T23:23:56.805Z,13.27
2022-12-16T23:26:42.802Z,14.73
2022-12-16T23:29:28.453Z,13.48
2022-12-16T23:32:13.729Z,15.30
2022-12-16T23:34:58.952Z,13.05
2022-12-16T23:37:45.231Z,14.52
2022-12-16T23:40:30.688Z,14.60
2022-12-16T23:43:16.470Z,14.63
2022-12-16T23:46:03.123Z,14.25
2022-12-16T23:48:48.808Z,13.25
2022-12-16T23:51:34.059Z,12.45
2022-12-16T23:54:19.224Z,12.60
2022-12-16T23:57:04.630Z,13.18
2022-12-16T23:59:50.030Z,11.63
